Time;durP1;ratioP1;P1;durP2;ratioP2;P2;SDS_P1;SDS_P2;PMS_P1;PMS_P2;Temp;Humidity;BMP_temperature;BMP_pressure;BME280_temperature;BME280_humidity;BME280_pressure;Samples;Min_cycle;Max_cycle;Signal;HPM_P1;HPM_P2
2023/11/21 00:00:02;;;;;;;1.85;1.23;;;11.00;1.00;;;;;;6305992;22;20019;-90
2023/11/21 00:02:28;;;;;;;1.70;1.30;;;11.10;1.00;;;;;;6277772;22;20019;-90
2023/11/21 00:04:58;;;;;;;2.28;1.30;;;11.10;1.00;;;;;;6278221;22;20016;-89
2023/11/21 00:07:26;;;;;;;1.80;1.25;;;11.10;1.00;;;;;;6276709;22;20066;-89
2023/11/21 00:09:55;;;;;;;1.50;1.10;;;11.10;1.00;;;;;;6303496;22;20027;-89
2023/11/21 00:12:36;;;;;;;1.20;1.10;;;11.10;85.60;;;;;;6278799;22;20084;-89
2023/11/21 00:15:10;;;;;;;2.05;1.00;;;11.10;38.90;;;;;;6278758;22;20023;-90
2023/11/21 00:17:38;;;;;;;1.85;1.33;;;11.10;99.90;;;;;;6253628;22;20094;-89
2023/11/21 00:20:07;;;;;;;2.00;1.50;;;11.10;99.90;;;;;;6228777;22;20095;-92
2023/11/21 00:22:36;;;;;;;2.60;1.73;;;11.10;99.90;;;;;;6252583;22;20027;-92
2023/11/21 00:25:06;;;;;;;1.80;1.58;;;11.10;99.90;;;;;;6275382;22;20023;-91
2023/11/21 00:27:33;;;;;;;3.40;1.98;;;11.10;99.90;;;;;;6275715;22;20023;-92
2023/11/21 00:30:10;;;;;;;2.15;1.70;;;11.10;99.90;;;;;;6305108;22;20016;-91
2023/11/21 00:32:37;;;;;;;2.28;1.48;;;11.00;1.00;;;;;;6254376;22;20023;-90
2023/11/21 00:35:11;;;;;;;2.88;1.85;;;11.00;99.90;;;;;;6278714;22;20026;-90
2023/11/21 00:38:03;;;;;;;2.20;2.00;;;11.00;99.90;;;;;;6305073;22;20023;-89
2023/11/21 00:40:32;;;;;;;2.20;1.98;;;11.00;99.90;;;;;;6279514;22;20053;-90
2023/11/21 00:43:02;;;;;;;2.30;2.10;;;11.00;99.90;;;;;;6278292;22;20019;-89
2023/11/21 00:45:35;;;;;;;4.60;2.13;;;11.00;1.00;;;;;;6305060;22;20061;-88
2023/11/21 00:48:04;;;;;;;2.92;2.15;;;11.00;1.00;;;;;;6278322;22;20038;-90
2023/11/21 00:50:35;;;;;;;2.30;1.88;;;11.00;84.90;;;;;;6229553;22;20034;-90
2023/11/21 00:53:02;;;;;;;2.10;1.50;;;11.00;95.50;;;;;;6246262;22;20654;-89
2023/11/21 00:55:35;;;;;;;3.00;2.05;;;11.00;99.90;;;;;;6272864;22;20337;-89
2023/11/21 00:58:04;;;;;;;1.90;1.55;;;11.10;99.90;;;;;;6246646;22;20019;-90
2023/11/21 01:00:39;;;;;;;2.65;1.80;;;11.00;99.90;;;;;;6270794;22;20066;-89
2023/11/21 01:03:10;;;;;;;2.00;1.80;;;11.00;99.90;;;;;;6269442;22;20028;-88
2023/11/21 01:05:37;;;;;;;3.20;2.47;;;11.00;99.90;;;;;;6275972;22;20098;-88
2023/11/21 01:08:05;;;;;;;2.30;1.70;;;11.10;99.90;;;;;;6302707;22;20023;-90
2023/11/21 01:10:34;;;;;;;2.45;2.03;;;11.10;99.90;;;;;;6275786;22;20025;-89
2023/11/21 01:13:07;;;;;;;2.65;2.13;;;11.10;99.90;;;;;;6274745;22;20521;-90
2023/11/21 01:15:34;;;;;;;2.67;1.83;;;11.10;1.00;;;;;;6250973;22;20019;-90
2023/11/21 01:18:05;;;;;;;1.55;1.45;;;11.10;12.90;;;;;;6249396;22;20433;-90
2023/11/21 01:20:32;;;;;;;3.45;1.90;;;11.20;99.90;;;;;;6250386;22;20641;-89
2023/11/21 01:22:59;;;;;;;2.10;1.90;;;11.20;99.90;;;;;;6224268;22;20122;-89
2023/11/21 01:25:29;;;;;;;2.30;2.00;;;11.20;99.90;;;;;;6275119;22;20076;-88
2023/11/21 01:28:00;;;;;;;2.15;1.95;;;11.20;99.90;;;;;;6249619;22;20045;-88
2023/11/21 01:30:40;;;;;;;3.42;1.95;;;11.20;99.90;;;;;;6274505;22;20049;-89
2023/11/21 01:33:09;;;;;;;1.65;1.50;;;11.20;99.90;;;;;;6248146;22;20019;-89
2023/11/21 01:35:36;;;;;;;2.35;1.90;;;11.20;99.90;;;;;;6274144;22;20022;-90
2023/11/21 01:38:24;;;;;;;2.90;2.60;;;11.20;99.90;;;;;;6300998;22;20027;-90
2023/11/21 01:40:54;;;;;;;3.03;2.33;;;11.20;99.90;;;;;;6301706;22;20263;-89
2023/11/21 01:43:24;;;;;;;1.88;1.70;;;11.20;8.40;;;;;;6225747;22;20057;-89
2023/11/21 01:45:51;;;;;;;2.35;2.00;;;11.20;99.90;;;;;;6277182;22;20509;-89
2023/11/21 01:48:21;;;;;;;2.53;2.13;;;11.20;1.00;;;;;;6277344;22;20011;-89
2023/11/21 01:50:54;;;;;;;1.77;1.52;;;11.20;1.00;;;;;;6278666;22;20029;-89
2023/11/21 01:53:25;;;;;;;1.90;1.60;;;11.10;99.90;;;;;;6304166;22;20095;-89
2023/11/21 01:55:52;;;;;;;1.65;1.48;;;11.20;99.90;;;;;;6278165;22;20019;-90
2023/11/21 01:58:21;;;;;;;1.60;1.40;;;11.20;99.90;;;;;;6279383;22;20031;-90
2023/11/21 02:00:50;;;;;;;1.33;1.08;;;11.20;99.90;;;;;;6279315;22;20038;-91
2023/11/21 02:03:20;;;;;;;1.50;1.25;;;11.20;99.90;;;;;;6278856;22;20449;-89
2023/11/21 02:05:48;;;;;;;1.67;1.45;;;11.20;1.00;;;;;;6305167;22;20072;-89
2023/11/21 02:08:26;;;;;;;1.38;1.02;;;11.20;17.00;;;;;;6278665;22;20337;-89
2023/11/21 02:10:55;;;;;;;2.45;1.45;;;11.20;1.00;;;;;;6254956;22;20077;-90
2023/11/21 02:13:24;;;;;;;1.75;1.00;;;11.20;99.90;;;;;;6280406;22;20030;-87
2023/11/21 02:15:54;;;;;;;1.40;1.05;;;11.20;99.90;;;;;;6255550;22;20019;-87
2023/11/21 02:18:24;;;;;;;1.50;0.98;;;11.20;99.90;;;;;;6285063;22;20023;-88
2023/11/21 02:20:51;;;;;;;1.33;1.05;;;11.20;99.90;;;;;;6261631;22;20019;-88
2023/11/21 02:23:18;;;;;;;1.38;0.95;;;11.20;29.20;;;;;;6284950;22;20027;-88
2023/11/21 02:25:51;;;;;;;0.88;0.70;;;11.20;1.00;;;;;;6311475;22;20026;-87
2023/11/21 02:28:25;;;;;;;1.00;0.90;;;11.30;1.00;;;;;;6283775;22;20104;-87
2023/11/21 02:30:57;;;;;;;1.10;0.60;;;11.30;1.00;;;;;;6261786;22;20049;-88
2023/11/21 02:33:28;;;;;;;1.30;0.93;;;11.30;99.90;;;;;;6279332;22;20027;-87
2023/11/21 02:35:54;;;;;;;1.77;0.80;;;11.30;99.90;;;;;;6313729;22;20254;-89
2023/11/21 02:38:25;;;;;;;1.02;0.85;;;11.30;99.90;;;;;;6279582;22;20023;-90
2023/11/21 02:40:53;;;;;;;0.68;0.65;;;11.30;99.90;;;;;;6254454;22;20366;-95
2023/11/21 02:43:23;;;;;;;0.73;0.52;;;11.30;99.90;;;;;;6254769;22;20027;-93
2023/11/21 02:45:50;;;;;;;0.73;0.70;;;11.30;99.90;;;;;;6279562;22;20023;-90
2023/11/21 02:48:17;;;;;;;0.80;0.55;;;11.30;99.90;;;;;;6304191;22;20023;-89
2023/11/21 02:50:53;;;;;;;1.05;0.70;;;11.30;99.90;;;;;;6279632;22;20054;-90
2023/11/21 02:53:20;;;;;;;1.55;0.85;;;11.30;99.90;;;;;;6304495;22;20020;-90
2023/11/21 02:55:48;;;;;;;0.57;0.57;;;11.30;99.90;;;;;;6279782;22;20023;-91
2023/11/21 02:58:16;;;;;;;1.15;0.90;;;11.40;1.00;;;;;;6279245;22;20042;-90
2023/11/21 03:00:45;;;;;;;0.95;0.90;;;11.40;1.00;;;;;;6254090;22;20049;-89
2023/11/21 03:03:14;;;;;;;1.00;0.75;;;11.30;1.00;;;;;;6253472;22;20027;-89
2023/11/21 03:05:43;;;;;;;0.80;0.73;;;11.30;1.00;;;;;;6305846;22;20011;-89
2023/11/21 03:08:18;;;;;;;1.08;0.90;;;11.20;99.90;;;;;;6252871;22;20434;-89
2023/11/21 03:10:47;;;;;;;1.77;1.15;;;11.20;48.30;;;;;;6306628;22;20023;-89
2023/11/21 03:13:29;;;;;;;1.10;0.90;;;11.20;1.00;;;;;;6279371;22;20037;-91
2023/11/21 03:15:58;;;;;;;1.75;1.20;;;11.20;99.90;;;;;;6279635;22;20022;-90
2023/11/21 03:18:37;;;;;;;1.88;1.20;;;11.10;99.90;;;;;;6305929;22;20806;-89
2023/11/21 03:21:05;;;;;;;1.80;1.48;;;11.10;1.00;;;;;;6279484;22;20023;-88
2023/11/21 03:23:41;;;;;;;1.73;1.52;;;11.10;75.80;;;;;;6252837;22;20019;-90
2023/11/21 03:26:12;;;;;;;1.83;1.63;;;11.00;99.90;;;;;;6227904;22;20027;-89
2023/11/21 03:28:39;;;;;;;1.52;1.40;;;11.00;99.90;;;;;;6278189;22;20021;-90
2023/11/21 03:31:08;;;;;;;2.00;1.67;;;11.10;99.90;;;;;;6307131;22;20353;-91
2023/11/21 03:33:35;;;;;;;1.90;1.70;;;11.00;99.80;;;;;;6280779;22;20035;-90
2023/11/21 03:36:03;;;;;;;2.20;1.55;;;11.00;18.90;;;;;;6255213;22;20031;-89
2023/11/21 03:38:30;;;;;;;1.55;1.45;;;11.00;99.90;;;;;;6307762;22;20027;-91
2023/11/21 03:40:57;;;;;;;1.75;1.48;;;11.00;99.90;;;;;;6307002;22;20645;-90
2023/11/21 03:43:25;;;;;;;1.80;1.27;;;11.00;99.90;;;;;;6253124;22;20038;-88
2023/11/21 03:45:57;;;;;;;2.20;1.40;;;11.00;99.90;;;;;;6305971;22;20038;-89
2023/11/21 03:48:23;;;;;;;2.28;1.40;;;10.90;1.00;;;;;;6305022;22;20027;-88
2023/11/21 03:50:52;;;;;;;1.67;1.40;;;10.90;99.90;;;;;;6278330;22;20015;-90
2023/11/21 03:53:25;;;;;;;2.20;1.27;;;10.90;1.00;;;;;;6303540;22;20027;-88
2023/11/21 03:55:52;;;;;;;1.42;1.17;;;10.80;1.00;;;;;;6253014;22;20019;-90
2023/11/21 03:58:31;;;;;;;1.45;1.15;;;10.80;99.90;;;;;;6305666;22;20098;-88
2023/11/21 04:01:06;;;;;;;1.48;1.08;;;10.90;99.90;;;;;;6306581;22;20030;-89
2023/11/21 04:03:32;;;;;;;1.52;1.13;;;10.90;18.70;;;;;;6253679;22;20077;-89
2023/11/21 04:06:00;;;;;;;1.10;0.82;;;10.90;1.00;;;;;;6306459;22;20030;-88
2023/11/21 04:08:33;;;;;;;1.30;1.05;;;11.00;99.90;;;;;;6306312;22;20027;-89
2023/11/21 04:11:02;;;;;;;1.45;1.30;;;10.90;99.30;;;;;;6305597;22;20019;-89
2023/11/21 04:13:30;;;;;;;1.77;1.13;;;10.90;1.00;;;;;;6278397;22;20027;-89
2023/11/21 04:16:03;;;;;;;1.58;1.20;;;10.90;1.00;;;;;;6278738;22;20072;-90
2023/11/21 04:18:37;;;;;;;1.45;1.00;;;10.90;1.00;;;;;;6305895;22;20025;-89
2023/11/21 04:21:09;;;;;;;1.70;1.05;;;10.90;99.90;;;;;;6253552;22;20019;-90
2023/11/21 04:23:37;;;;;;;1.27;0.95;;;10.90;99.90;;;;;;6278446;22;20628;-89
2023/11/21 04:26:06;;;;;;;1.20;0.90;;;10.90;99.90;;;;;;6278509;22;20027;-89
2023/11/21 04:28:57;;;;;;;1.20;0.98;;;10.90;99.90;;;;;;6305506;22;20023;-90
2023/11/21 04:31:28;;;;;;;2.22;0.82;;;10.90;99.90;;;;;;6278529;22;20108;-90
2023/11/21 04:33:56;;;;;;;0.90;0.63;;;10.90;99.90;;;;;;6305500;22;20023;-90
2023/11/21 04:36:34;;;;;;;1.05;0.75;;;10.90;3.30;;;;;;6304489;22;20023;-90
2023/11/21 04:39:06;;;;;;;0.98;0.80;;;10.90;1.00;;;;;;6278987;22;20023;-91
2023/11/21 04:41:33;;;;;;;1.13;0.80;;;11.00;1.00;;;;;;6278764;22;20093;-89
2023/11/21 04:44:02;;;;;;;1.67;0.93;;;11.00;99.90;;;;;;6278343;22;20019;-90
2023/11/21 04:46:59;;;;;;;0.80;0.60;;;11.00;1.00;;;;;;6305543;22;20015;-90
2023/11/21 04:49:27;;;;;;;0.98;0.63;;;11.00;99.90;;;;;;6305732;22;20023;-90
2023/11/21 04:52:12;;;;;;;1.52;1.05;;;10.90;1.00;;;;;;6277256;22;20026;-90
2023/11/21 04:54:39;;;;;;;0.88;0.65;;;10.90;1.00;;;;;;6304801;22;20057;-90
2023/11/21 04:57:07;;;;;;;1.15;0.80;;;10.90;1.00;;;;;;6305290;22;20122;-88
2023/11/21 04:59:35;;;;;;;1.10;0.80;;;10.90;78.10;;;;;;6278181;22;20024;-92
2023/11/21 05:02:14;;;;;;;0.77;0.70;;;10.80;99.90;;;;;;6278352;22;20092;-92
2023/11/21 05:04:59;;;;;;;0.65;0.65;;;10.80;1.00;;;;;;6305439;22;20028;-91
2023/11/21 05:07:28;;;;;;;0.70;0.65;;;10.80;99.90;;;;;;6277839;22;20093;-92
2023/11/21 05:10:10;;;;;;;0.93;0.43;;;10.80;99.90;;;;;;6278394;22;20421;-91
2023/11/21 05:12:40;;;;;;;0.68;0.55;;;10.80;99.90;;;;;;6277504;22;20067;-91
2023/11/21 05:15:12;;;;;;;1.15;0.65;;;10.80;99.90;;;;;;6277644;22;20042;-90
2023/11/21 05:17:42;;;;;;;0.80;0.60;;;10.70;99.90;;;;;;6278105;22;20031;-92
2023/11/21 05:20:12;;;;;;;0.40;0.40;;;10.70;99.90;;;;;;6278401;22;20445;-90
2023/11/21 05:22:41;;;;;;;0.82;0.60;;;10.70;71.00;;;;;;6276454;22;20033;-94
2023/11/21 05:25:12;;;;;;;0.70;0.68;;;10.60;1.00;;;;;;6277458;22;20030;-90
2023/11/21 05:27:41;;;;;;;0.85;0.52;;;10.60;1.00;;;;;;6252389;22;20023;-91
2023/11/21 05:30:12;;;;;;;1.75;0.60;;;10.60;1.00;;;;;;6305352;22;20019;-91
2023/11/21 05:32:39;;;;;;;0.93;0.70;;;10.50;32.70;;;;;;6304392;22;20100;-94
2023/11/21 05:35:10;;;;;;;0.90;0.70;;;10.40;99.90;;;;;;6304550;22;20022;-92
2023/11/21 05:37:39;;;;;;;1.50;0.80;;;10.30;1.00;;;;;;6303389;22;20088;-93
2023/11/21 05:40:07;;;;;;;0.73;0.73;;;10.30;99.90;;;;;;6277253;22;20016;-93
2023/11/21 05:42:34;;;;;;;1.00;0.80;;;10.30;99.90;;;;;;6252904;22;20023;-92
2023/11/21 05:45:09;;;;;;;0.90;0.63;;;10.20;99.90;;;;;;6278032;22;20016;-93
2023/11/21 05:47:41;;;;;;;1.45;0.82;;;10.30;99.90;;;;;;6252921;22;20353;-94
2023/11/21 05:50:14;;;;;;;1.02;0.80;;;10.20;99.90;;;;;;6248491;22;20314;-91
2023/11/21 05:52:48;;;;;;;1.40;1.00;;;10.30;99.90;;;;;;6227397;22;20454;-90
2023/11/21 05:55:25;;;;;;;2.58;0.80;;;10.30;99.90;;;;;;6276432;22;20073;-89
2023/11/21 05:57:53;;;;;;;0.90;0.80;;;10.20;1.00;;;;;;6252982;22;20118;-93
2023/11/21 06:00:25;;;;;;;1.30;1.00;;;10.20;94.50;;;;;;6251487;22;20015;-90
2023/11/21 06:02:55;;;;;;;1.45;0.90;;;10.20;1.00;;;;;;6275054;22;20333;-90
2023/11/21 06:05:31;;;;;;;1.77;1.30;;;10.20;99.90;;;;;;6302150;22;20016;-90
2023/11/21 06:08:07;;;;;;;1.40;1.10;;;10.20;99.90;;;;;;6251179;22;20030;-92
2023/11/21 06:10:35;;;;;;;1.92;1.25;;;10.20;99.90;;;;;;6305417;22;20055;-90
2023/11/21 06:13:03;;;;;;;2.63;1.45;;;10.20;1.00;;;;;;6303357;22;20097;-91
2023/11/21 06:15:31;;;;;;;1.30;1.20;;;10.20;1.00;;;;;;6275542;22;20015;-90
2023/11/21 06:18:09;;;;;;;1.83;1.38;;;10.20;99.90;;;;;;6305693;22;20554;-90
2023/11/21 06:20:50;;;;;;;2.28;1.58;;;10.20;47.60;;;;;;6306916;22;20019;-94
2023/11/21 06:23:16;;;;;;;2.17;1.10;;;10.20;1.00;;;;;;6303262;22;20023;-93
2023/11/21 06:25:46;;;;;;;1.55;1.10;;;10.20;99.90;;;;;;6250688;22;20019;-90
2023/11/21 06:28:24;;;;;;;3.42;1.40;;;10.20;99.90;;;;;;6302262;22;20023;-92
2023/11/21 06:30:53;;;;;;;1.50;1.10;;;10.30;99.90;;;;;;6304459;22;20046;-83
2023/11/21 06:33:21;;;;;;;2.17;1.10;;;10.30;99.90;;;;;;6299688;22;20563;-82
2023/11/21 06:35:48;;;;;;;1.88;1.42;;;10.30;45.20;;;;;;6300530;22;20081;-82
2023/11/21 06:38:16;;;;;;;2.53;1.55;;;10.30;1.00;;;;;;6302375;22;20092;-90
2023/11/21 06:40:50;;;;;;;2.13;1.10;;;10.30;99.90;;;;;;6306183;22;20019;-89
2023/11/21 06:43:17;;;;;;;2.33;1.05;;;10.30;99.90;;;;;;6306706;22;20102;-90
2023/11/21 06:45:45;;;;;;;2.35;1.35;;;10.20;99.90;;;;;;6306478;22;20019;-91
2023/11/21 06:48:14;;;;;;;2.00;0.90;;;10.30;26.10;;;;;;6279606;22;20054;-93
2023/11/21 06:50:46;;;;;;;1.50;0.95;;;10.30;24.20;;;;;;6253521;22;20027;-84
2023/11/21 06:53:13;;;;;;;2.28;1.20;;;10.30;99.90;;;;;;6220363;22;20030;-84
2023/11/21 06:55:40;;;;;;;1.95;1.23;;;10.20;99.90;;;;;;6273588;22;20115;-85
2023/11/21 06:58:07;;;;;;;1.38;0.80;;;10.10;99.90;;;;;;6221017;22;20475;-85
2023/11/21 07:00:34;;;;;;;0.90;0.60;;;10.20;99.90;;;;;;6297510;22;20148;-88
2023/11/21 07:03:01;;;;;;;1.55;0.80;;;10.20;99.90;;;;;;6296384;22;20023;-86
2023/11/21 07:05:29;;;;;;;1.48;0.80;;;10.20;99.90;;;;;;6271844;22;20098;-86
2023/11/21 07:08:04;;;;;;;2.30;1.08;;;10.10;99.90;;;;;;6271658;22;20096;-91
2023/11/21 07:10:31;;;;;;;2.58;1.00;;;10.10;99.90;;;;;;6271166;22;20090;-84
2023/11/21 07:12:58;;;;;;;2.13;0.90;;;10.00;1.00;;;;;;6297747;22;20023;-86
2023/11/21 07:15:32;;;;;;;1.48;0.70;;;10.00;1.00;;;;;;6300446;22;20031;-90
2023/11/21 07:18:00;;;;;;;0.73;0.70;;;10.00;99.90;;;;;;6246666;22;20020;-87
2023/11/21 07:20:30;;;;;;;1.48;0.70;;;9.90;99.90;;;;;;6275031;22;20015;-86
2023/11/21 07:23:00;;;;;;;1.00;0.73;;;9.90;99.90;;;;;;6273939;22;20719;-85
2023/11/21 07:25:27;;;;;;;0.73;0.70;;;10.00;99.90;;;;;;6248772;22;20023;-86
2023/11/21 07:27:56;;;;;;;1.00;0.80;;;10.00;99.90;;;;;;6274213;22;20483;-85
2023/11/21 07:30:23;;;;;;;1.48;0.70;;;10.00;99.90;;;;;;6274101;22;20217;-86
2023/11/21 07:32:50;;;;;;;1.90;1.05;;;10.00;99.90;;;;;;6248327;22;20046;-86
2023/11/21 07:35:17;;;;;;;2.60;0.75;;;10.00;99.90;;;;;;6298323;22;20350;-86
2023/11/21 07:37:44;;;;;;;2.42;0.90;;;9.90;42.70;;;;;;6269587;22;20094;-85
2023/11/21 07:40:11;;;;;;;1.10;0.82;;;9.90;19.50;;;;;;6297368;22;20113;-86
2023/11/21 07:42:38;;;;;;;0.70;0.70;;;9.90;9.00;;;;;;6298260;22;20023;-86
2023/11/21 07:45:06;;;;;;;1.63;0.90;;;9.90;1.00;;;;;;6247680;22;20095;-84
2023/11/21 07:47:35;;;;;;;1.60;0.90;;;9.90;1.00;;;;;;6272090;22;20019;-85
2023/11/21 07:50:03;;;;;;;2.33;1.10;;;9.90;1.00;;;;;;6271660;22;20080;-87
2023/11/21 07:52:30;;;;;;;1.50;1.10;;;9.90;1.00;;;;;;6246675;22;20015;-87
2023/11/21 07:54:57;;;;;;;1.80;0.80;;;9.80;99.90;;;;;;6300621;22;20074;-86
2023/11/21 07:57:24;;;;;;;2.90;1.10;;;9.80;99.90;;;;;;6249412;22;20537;-86
2023/11/21 07:59:56;;;;;;;2.28;1.23;;;9.80;99.90;;;;;;6301482;22;20023;-86
2023/11/21 08:02:23;;;;;;;2.25;1.45;;;9.70;1.00;;;;;;6246407;22;20019;-85
2023/11/21 08:04:51;;;;;;;2.35;1.30;;;9.70;1.00;;;;;;6270821;22;20069;-86
2023/11/21 08:07:19;;;;;;;1.73;1.23;;;9.70;65.20;;;;;;6271632;22;20027;-85
2023/11/21 08:09:49;;;;;;;2.10;1.10;;;9.60;99.90;;;;;;6300470;22;20038;-84
2023/11/21 08:12:16;;;;;;;1.80;1.08;;;9.60;99.90;;;;;;6248311;22;20089;-85
2023/11/21 08:14:44;;;;;;;1.23;1.00;;;9.60;99.90;;;;;;6247852;22;20118;-86
2023/11/21 08:17:11;;;;;;;1.67;0.90;;;9.70;99.90;;;;;;6273772;22;20038;-86
2023/11/21 08:19:40;;;;;;;2.40;0.95;;;9.70;99.90;;;;;;6301224;22;20058;-85
2023/11/21 08:22:07;;;;;;;1.70;1.42;;;9.70;99.90;;;;;;6300882;22;20023;-86
2023/11/21 08:24:34;;;;;;;2.00;1.50;;;9.70;1.00;;;;;;6273450;22;20096;-84
2023/11/21 08:27:01;;;;;;;3.35;1.83;;;9.70;99.90;;;;;;6300399;22;20011;-85
2023/11/21 08:29:28;;;;;;;3.30;1.90;;;9.70;1.00;;;;;;6300372;22;20020;-85
2023/11/21 08:31:56;;;;;;;2.53;1.77;;;9.70;1.00;;;;;;6300756;22;20019;-84
2023/11/21 08:34:23;;;;;;;2.83;1.60;;;9.70;1.00;;;;;;6273057;22;20072;-85
2023/11/21 08:36:51;;;;;;;1.60;1.30;;;9.70;1.00;;;;;;6299451;22;20019;-85
2023/11/21 08:39:19;;;;;;;2.85;1.70;;;9.80;1.00;;;;;;6299118;22;20027;-85
2023/11/21 08:41:46;;;;;;;2.42;1.48;;;9.80;1.00;;;;;;6299335;22;20498;-84
2023/11/21 08:44:13;;;;;;;2.90;2.13;;;9.80;99.90;;;;;;6246805;22;20034;-85
2023/11/21 08:46:41;;;;;;;3.08;1.77;;;9.80;1.00;;;;;;6298577;22;20069;-85
2023/11/21 08:49:08;;;;;;;1.75;1.20;;;9.90;1.00;;;;;;6299230;22;20114;-84
2023/11/21 08:51:35;;;;;;;1.88;1.40;;;9.90;1.00;;;;;;6297820;22;20098;-85
2023/11/21 08:54:04;;;;;;;2.13;1.20;;;9.90;99.90;;;;;;6271997;22;20031;-85
2023/11/21 08:56:33;;;;;;;1.83;1.20;;;10.00;1.00;;;;;;6273281;22;20023;-84
2023/11/21 08:59:02;;;;;;;2.53;1.15;;;10.00;99.90;;;;;;6247405;22;20370;-85
2023/11/21 09:01:31;;;;;;;1.40;1.02;;;10.00;99.90;;;;;;6272572;22;20021;-85
2023/11/21 09:03:58;;;;;;;2.35;1.40;;;10.00;99.90;;;;;;6272705;22;20053;-85
2023/11/21 09:06:25;;;;;;;2.45;1.20;;;9.90;99.90;;;;;;6271257;22;20023;-84
2023/11/21 09:08:52;;;;;;;1.58;1.27;;;9.90;1.00;;;;;;6271868;22;20023;-85
2023/11/21 09:11:23;;;;;;;1.35;0.88;;;9.90;1.00;;;;;;6271578;22;20023;-84
2023/11/21 09:13:51;;;;;;;1.30;1.00;;;9.90;99.90;;;;;;6296569;22;20500;-84
2023/11/21 09:16:18;;;;;;;2.40;1.10;;;9.90;99.90;;;;;;6262171;22;20037;-83
2023/11/21 09:18:45;;;;;;;1.70;1.08;;;9.90;1.00;;;;;;6239926;22;20031;-78
2023/11/21 09:21:12;;;;;;;2.30;1.20;;;9.90;1.00;;;;;;6239062;22;20094;-78
2023/11/21 09:23:41;;;;;;;1.42;0.90;;;9.90;99.90;;;;;;6292502;22;20103;-78
2023/11/21 09:26:08;;;;;;;2.10;1.30;;;9.90;99.90;;;;;;6239957;22;20089;-77
2023/11/21 09:28:41;;;;;;;1.70;1.00;;;9.90;99.90;;;;;;6297590;22;20034;-76
2023/11/21 09:31:08;;;;;;;1.17;0.88;;;9.90;99.90;;;;;;6299527;22;20046;-77
2023/11/21 09:33:38;;;;;;;1.10;0.80;;;10.00;99.90;;;;;;6244385;22;20023;-77
2023/11/21 09:36:05;;;;;;;2.47;1.17;;;10.10;1.00;;;;;;6268651;22;20106;-77
2023/11/21 09:38:32;;;;;;;1.35;0.98;;;10.20;1.00;;;;;;6295717;22;20023;-76
2023/11/21 09:40:59;;;;;;;2.08;1.17;;;10.20;99.90;;;;;;6218194;22;20105;-77
2023/11/21 09:43:27;;;;;;;1.13;0.77;;;10.30;1.00;;;;;;6218353;22;20133;-77
2023/11/21 09:45:56;;;;;;;1.02;0.80;;;10.30;1.00;;;;;;6269195;22;20023;-77
2023/11/21 09:48:24;;;;;;;1.38;0.88;;;10.40;99.90;;;;;;6245637;22;20282;-77
2023/11/21 09:50:51;;;;;;;1.48;1.08;;;10.40;99.90;;;;;;6269160;22;20058;-77
2023/11/21 09:53:21;;;;;;;1.15;0.80;;;10.40;99.90;;;;;;6219308;22;20499;-77
2023/11/21 09:55:51;;;;;;;1.08;0.90;;;10.40;6.80;;;;;;6272876;22;20023;-77
2023/11/21 09:58:19;;;;;;;1.38;0.85;;;10.50;15.90;;;;;;6272791;22;20057;-77
2023/11/21 10:00:47;;;;;;;1.45;0.80;;;10.50;1.00;;;;;;6300538;22;20027;-77
2023/11/21 10:03:14;;;;;;;1.35;0.63;;;10.50;1.00;;;;;;6271499;22;20023;-77
2023/11/21 10:05:45;;;;;;;0.98;0.80;;;10.50;1.00;;;;;;6300002;22;20162;-78
2023/11/21 10:08:13;;;;;;;1.33;0.70;;;10.60;1.00;;;;;;6295370;22;20042;-78
2023/11/21 10:10:47;;;;;;;1.25;0.73;;;10.60;1.00;;;;;;6218218;22;20334;-78
2023/11/21 10:13:19;;;;;;;0.98;0.70;;;10.60;1.00;;;;;;6271882;22;20094;-78
2023/11/21 10:15:52;;;;;;;2.03;1.20;;;10.60;1.00;;;;;;6249624;22;20381;-78
2023/11/21 10:18:22;;;;;;;1.50;0.85;;;10.60;1.00;;;;;;6246947;22;20026;-78
2023/11/21 10:20:52;;;;;;;2.65;1.13;;;10.60;1.00;;;;;;6271161;22;20092;-78
2023/11/21 10:23:22;;;;;;;2.22;1.10;;;10.50;1.00;;;;;;6242150;22;20023;-77
2023/11/21 10:25:51;;;;;;;1.13;0.85;;;10.60;1.00;;;;;;6295580;22;20322;-78
2023/11/21 10:28:19;;;;;;;2.03;1.00;;;10.60;1.00;;;;;;6268139;22;20026;-78
2023/11/21 10:30:45;;;;;;;1.33;0.90;;;10.70;1.00;;;;;;6243079;22;20019;-77
2023/11/21 10:33:12;;;;;;;1.58;1.23;;;10.70;1.00;;;;;;6242595;22;20752;-77
2023/11/21 10:35:42;;;;;;;2.33;0.90;;;10.70;1.00;;;;;;6299986;22;20041;-78
2023/11/21 10:38:10;;;;;;;1.42;0.88;;;10.80;1.00;;;;;;6297388;22;20027;-78
2023/11/21 10:40:44;;;;;;;2.10;0.88;;;10.80;1.00;;;;;;6299391;22;20102;-78
2023/11/21 10:43:12;;;;;;;0.50;0.50;;;10.90;99.90;;;;;;6272409;22;20084;-77
2023/11/21 10:45:40;;;;;;;0.82;0.70;;;10.90;1.00;;;;;;6273002;22;20022;-78
2023/11/21 10:48:08;;;;;;;1.77;1.10;;;11.00;1.00;;;;;;6298906;22;20098;-78
2023/11/21 10:50:35;;;;;;;1.75;1.10;;;10.90;99.90;;;;;;6269608;22;20033;-77
2023/11/21 10:53:03;;;;;;;1.13;0.65;;;10.80;1.00;;;;;;6266184;22;20340;-78
2023/11/21 10:55:32;;;;;;;0.85;0.68;;;10.80;1.00;;;;;;6270136;22;20080;-78
2023/11/21 10:58:04;;;;;;;0.82;0.63;;;10.90;1.00;;;;;;6272707;22;20023;-78
2023/11/21 11:00:32;;;;;;;0.70;0.50;;;11.00;1.00;;;;;;6270964;22;20063;-77
2023/11/21 11:03:00;;;;;;;0.90;0.60;;;11.00;1.00;;;;;;6294915;22;20019;-78
2023/11/21 11:05:37;;;;;;;0.60;0.43;;;11.10;1.00;;;;;;6296263;22;20031;-77
2023/11/21 11:08:09;;;;;;;0.60;0.50;;;11.20;1.00;;;;;;6272258;22;20445;-78
2023/11/21 11:10:37;;;;;;;1.80;1.17;;;11.20;1.00;;;;;;6298678;22;20023;-77
2023/11/21 11:13:04;;;;;;;1.20;0.70;;;11.20;1.00;;;;;;6299281;22;20015;-78
2023/11/21 11:15:31;;;;;;;1.65;1.00;;;11.20;1.00;;;;;;6272146;22;20031;-77
2023/11/21 11:17:58;;;;;;;0.70;0.70;;;11.20;1.00;;;;;;6272171;22;20384;-78
2023/11/21 11:20:30;;;;;;;0.60;0.60;;;11.10;1.00;;;;;;6299326;22;20471;-77
2023/11/21 11:23:17;;;;;;;0.93;0.63;;;11.00;1.00;;;;;;6270506;22;20023;-78
2023/11/21 11:25:58;;;;;;;1.23;0.90;;;11.00;1.00;;;;;;6268441;22;20421;-77
2023/11/21 11:28:36;;;;;;;1.42;0.95;;;11.10;7.80;;;;;;6243587;22;20041;-78
2023/11/21 11:31:13;;;;;;;0.95;0.80;;;11.10;1.00;;;;;;6273902;22;20027;-78
2023/11/21 11:33:57;;;;;;;0.90;0.70;;;11.20;1.00;;;;;;6271537;22;20452;-78
2023/11/21 11:36:42;;;;;;;;;;;11.30;1.00;;;;;;6245940;22;20046;-78
2023/11/21 11:39:37;;;;;;;1.13;0.77;;;11.30;1.00;;;;;;6298392;22;20002;-78
2023/11/21 11:42:06;;;;;;;1.48;0.70;;;11.10;1.00;;;;;;6266113;22;20027;-77
2023/11/21 11:44:51;;;;;;;1.92;0.75;;;11.10;18.00;;;;;;6272473;22;20023;-77
2023/11/21 11:47:32;;;;;;;1.30;1.10;;;11.10;90.80;;;;;;6298144;22;20050;-77
2023/11/21 11:50:08;;;;;;;1.05;0.77;;;11.20;99.90;;;;;;6268167;22;20102;-78
2023/11/21 11:52:38;;;;;;;0.70;0.60;;;11.30;1.00;;;;;;6266185;22;20068;-78
2023/11/21 11:55:07;;;;;;;0.60;0.60;;;11.30;1.00;;;;;;6297835;22;20102;-77
2023/11/21 11:57:38;;;;;;;1.88;0.80;;;11.40;1.00;;;;;;6270193;22;20026;-78
2023/11/21 12:00:15;;;;;;;2.22;0.70;;;11.40;1.00;;;;;;6294539;22;20019;-78
2023/11/21 12:02:44;;;;;;;0.90;0.70;;;11.40;1.00;;;;;;6267764;22;20076;-76
2023/11/21 12:05:13;;;;;;;0.95;0.80;;;11.40;1.00;;;;;;6292120;22;20031;-83
2023/11/21 12:07:54;;;;;;;2.38;1.13;;;11.50;1.00;;;;;;6289694;22;20015;-80
2023/11/21 12:10:24;;;;;;;1.05;0.73;;;11.40;1.00;;;;;;6290933;22;20572;-81
2023/11/21 12:12:52;;;;;;;0.82;0.68;;;11.30;1.00;;;;;;6291499;22;20413;-82
2023/11/21 12:15:19;;;;;;;1.52;0.93;;;11.40;99.90;;;;;;6238625;22;20108;-81
2023/11/21 12:17:46;;;;;;;1.35;0.88;;;11.50;25.40;;;;;;6262514;22;20085;-80
2023/11/21 12:20:19;;;;;;;0.98;0.80;;;11.50;1.00;;;;;;6291587;22;20023;-81
2023/11/21 12:22:50;;;;;;;1.52;0.80;;;11.50;1.00;;;;;;6263929;22;20026;-80
2023/11/21 12:25:22;;;;;;;1.02;0.75;;;11.60;1.00;;;;;;6263714;22;20031;-81
2023/11/21 12:27:51;;;;;;;1.58;1.00;;;11.60;1.00;;;;;;6264502;22;20030;-81
2023/11/21 12:30:19;;;;;;;1.40;1.05;;;11.50;1.00;;;;;;6239893;22;20033;-80
2023/11/21 12:32:53;;;;;;;1.25;1.15;;;11.50;99.90;;;;;;6213805;22;20025;-81
2023/11/21 12:35:22;;;;;;;1.02;0.90;;;11.40;1.00;;;;;;6239092;22;20026;-81
2023/11/21 12:37:50;;;;;;;1.65;1.00;;;11.50;1.00;;;;;;6262255;22;20019;-81
2023/11/21 12:40:17;;;;;;;1.40;1.00;;;11.60;99.90;;;;;;6263116;22;20046;-81
2023/11/21 12:42:48;;;;;;;1.38;0.95;;;11.50;99.90;;;;;;6237674;22;20072;-81
2023/11/21 12:45:19;;;;;;;1.42;1.15;;;11.60;99.90;;;;;;6237992;22;20485;-80
2023/11/21 12:47:49;;;;;;;1.10;1.00;;;11.60;99.90;;;;;;6290776;22;20058;-80
2023/11/21 12:50:23;;;;;;;1.80;1.20;;;11.70;99.90;;;;;;6239270;22;20019;-81
2023/11/21 12:52:53;;;;;;;1.20;0.75;;;11.60;99.90;;;;;;6263141;22;20023;-80
2023/11/21 12:55:24;;;;;;;1.52;1.02;;;11.70;99.90;;;;;;6291086;22;20625;-79
2023/11/21 12:57:54;;;;;;;2.55;1.20;;;11.60;99.90;;;;;;6213830;22;20034;-80
2023/11/21 13:00:32;;;;;;;1.58;1.35;;;11.60;99.90;;;;;;6263605;22;20023;-81
2023/11/21 13:02:59;;;;;;;1.77;1.38;;;11.60;99.90;;;;;;6239390;22;20581;-76
2023/11/21 13:05:27;;;;;;;1.77;1.23;;;11.60;1.00;;;;;;6213752;22;20019;-80
2023/11/21 13:07:57;;;;;;;1.60;1.10;;;11.60;1.00;;;;;;6289401;22;20587;-80